createdAt,value
2023-02-24T00:02:02.121Z,-2.70
2023-02-24T00:04:40.318Z,-2.70
2023-02-24T00:07:11.372Z,-2.90
2023-02-24T00:09:40.594Z,-2.90
2023-02-24T00:12:13.973Z,-2.90
2023-02-24T00:14:45.603Z,-2.90
2023-02-24T00:17:17.981Z,-2.90
2023-02-24T00:19:47.360Z,-2.90
2023-02-24T00:22:15.831Z,-2.90
2023-02-24T00:24:44.257Z,-2.90
2023-02-24T00:27:12.774Z,-2.90
2023-02-24T00:29:42.708Z,-2.90
2023-02-24T00:32:13.804Z,-2.90
2023-02-24T00:34:43.956Z,-3.00
2023-02-24T00:37:13.243Z,-3.10
2023-02-24T00:39:42.266Z,-3.40
2023-02-24T00:42:12.795Z,-3.00
2023-02-24T00:44:45.767Z,-3.10
2023-02-24T00:47:17.206Z,-3.40
2023-02-24T00:49:45.908Z,-3.20
2023-02-24T00:52:17.939Z,-3.10
2023-02-24T00:54:48.644Z,-3.50
2023-02-24T00:57:22.063Z,-3.10
2023-02-24T00:59:52.276Z,-3.10
2023-02-24T01:02:21.539Z,-3.60
2023-02-24T01:04:51.920Z,-3.20
2023-02-24T01:07:20.543Z,-3.10
2023-02-24T01:09:52.327Z,-3.60
2023-02-24T01:12:39.083Z,-3.40
2023-02-24T01:15:10.826Z,-3.30
2023-02-24T01:17:39.528Z,-3.40
2023-02-24T01:20:19.235Z,-3.30
2023-02-24T01:22:54.165Z,-3.40
2023-02-24T01:25:23.319Z,-3.40
2023-02-24T01:27:53.523Z,-3.50
2023-02-24T01:30:21.982Z,-3.70
2023-02-24T01:32:50.549Z,-3.80
2023-02-24T01:35:19.096Z,-4.00
2023-02-24T01:37:47.581Z,-4.00
2023-02-24T01:40:21.719Z,-3.50
2023-02-24T01:42:50.944Z,-3.70
2023-02-24T01:45:23.406Z,-3.90
2023-02-24T01:47:53.034Z,-3.70
2023-02-24T01:50:24.563Z,-3.90
2023-02-24T01:52:57.504Z,-3.80
2023-02-24T01:55:38.442Z,-4.00
2023-02-24T01:58:13.717Z,-4.20
2023-02-24T02:00:47.898Z,-3.70
2023-02-24T02:03:25.495Z,-3.90
2023-02-24T02:05:57.173Z,-4.00
2023-02-24T02:08:26.525Z,-4.00
2023-02-24T02:10:59.682Z,-4.20
2023-02-24T02:13:31.468Z,-4.20
2023-02-24T02:16:26.472Z,-3.70
2023-02-24T02:19:28.961Z,-3.90
2023-02-24T02:22:03.284Z,-3.70
2023-02-24T02:24:53.396Z,-4.00
2023-02-24T02:27:30.653Z,-4.10
2023-02-24T02:30:17.872Z,-3.90
2023-02-24T02:33:02.583Z,-3.90
2023-02-24T02:35:40.551Z,-4.10
2023-02-24T02:38:26.232Z,-4.20
2023-02-24T02:41:08.395Z,-4.20
2023-02-24T02:44:03.627Z,-4.20
2023-02-24T02:46:44.834Z,-4.40
2023-02-24T02:49:37.403Z,-3.90
2023-02-24T02:52:22.709Z,-3.90
2023-02-24T02:55:22.480Z,-4.40
2023-02-24T02:57:54.831Z,-4.10
2023-02-24T03:00:30.149Z,-3.90
2023-02-24T03:03:05.176Z,-3.90
2023-02-24T03:05:39.401Z,-3.90
2023-02-24T03:08:12.318Z,-4.10
2023-02-24T03:10:45.612Z,-3.90
2023-02-24T03:13:17.204Z,-3.90
2023-02-24T03:15:48.374Z,-4.40
2023-02-24T03:18:36.553Z,-4.40
2023-02-24T03:21:21.063Z,-4.10
2023-02-24T03:23:51.978Z,-4.40
2023-02-24T03:26:34.264Z,-4.10
2023-02-24T03:29:24.590Z,-4.40
2023-02-24T03:32:21.940Z,-4.40
2023-02-24T03:34:54.314Z,-4.40
2023-02-24T03:37:27.694Z,-4.40
2023-02-24T03:39:59.812Z,-4.40
2023-02-24T03:42:34.659Z,-4.40
2023-02-24T03:45:03.847Z,-4.10
2023-02-24T03:47:35.062Z,-4.30
2023-02-24T03:50:03.465Z,-3.90
2023-02-24T03:52:47.802Z,-4.30
2023-02-24T03:55:43.408Z,-4.40
2023-02-24T03:58:27.201Z,-4.60
2023-02-24T04:01:07.494Z,-4.40
2023-02-24T04:04:02.371Z,-3.90
2023-02-24T04:06:37.304Z,-4.40
2023-02-24T04:09:27.319Z,-4.10
2023-02-24T04:12:10.140Z,-4.40
2023-02-24T04:14:47.661Z,-4.10
2023-02-24T04:17:31.693Z,-4.40
2023-02-24T04:20:11.464Z,-4.00
2023-02-24T04:22:41.843Z,-4.20
2023-02-24T04:25:14.476Z,-4.20
2023-02-24T04:27:44.305Z,-4.40
2023-02-24T04:30:13.868Z,-4.40
2023-02-24T04:32:45.389Z,-4.20
2023-02-24T04:35:16.324Z,-4.60
2023-02-24T04:37:47.837Z,-4.60
2023-02-24T04:40:18.539Z,-4.60
2023-02-24T04:42:50.092Z,-4.60
2023-02-24T04:45:24.833Z,-4.60
2023-02-24T04:48:01.945Z,-4.50
2023-02-24T04:50:37.052Z,-4.10
2023-02-24T04:53:10.086Z,-4.30
2023-02-24T04:55:41.794Z,-4.60
2023-02-24T04:58:15.449Z,-4.60
2023-02-24T05:00:43.886Z,-4.60
2023-02-24T05:03:13.348Z,-4.60
2023-02-24T05:05:43.745Z,-4.60
2023-02-24T05:08:12.785Z,-4.50
2023-02-24T05:10:47.262Z,-4.40
2023-02-24T05:13:18.613Z,-4.60
2023-02-24T05:15:48.806Z,-4.60
2023-02-24T05:18:18.470Z,-4.60
2023-02-24T05:21:08.544Z,-4.50
2023-02-24T05:23:41.121Z,-4.30
2023-02-24T05:26:10.280Z,-4.80
2023-02-24T05:28:41.376Z,-4.60
2023-02-24T05:31:16.030Z,-4.60
2023-02-24T05:33:46.036Z,-4.60
2023-02-24T05:36:21.000Z,-4.60
2023-02-24T05:38:56.843Z,-4.60
2023-02-24T05:41:37.100Z,-4.60
2023-02-24T05:44:10.285Z,-4.60
2023-02-24T05:46:41.626Z,-4.50
2023-02-24T05:49:24.595Z,-4.20
2023-02-24T05:51:57.774Z,-4.50
2023-02-24T05:54:31.887Z,-4.50
2023-02-24T05:57:02.182Z,-4.10
2023-02-24T05:59:33.786Z,-4.60
2023-02-24T06:02:08.268Z,-4.60
2023-02-24T06:04:41.072Z,-4.60
2023-02-24T06:07:15.058Z,-4.60
2023-02-24T06:09:46.909Z,-4.50
2023-02-24T06:12:15.376Z,-4.20
2023-02-24T06:14:45.794Z,-4.60
2023-02-24T06:17:17.703Z,-4.40
2023-02-24T06:19:51.084Z,-4.40
2023-02-24T06:22:23.555Z,-4.40
2023-02-24T06:24:54.872Z,-4.60
2023-02-24T06:27:25.969Z,-4.60
2023-02-24T06:29:55.883Z,-4.60
2023-02-24T06:32:27.147Z,-4.60
2023-02-24T06:34:57.956Z,-4.60
2023-02-24T06:37:26.406Z,-4.60
2023-02-24T06:39:54.870Z,-4.60
2023-02-24T06:42:23.469Z,-4.40
2023-02-24T06:44:51.916Z,-4.60
2023-02-24T06:47:20.435Z,-4.60
2023-02-24T06:49:50.338Z,-4.60
2023-02-24T06:52:19.560Z,-4.60
2023-02-24T06:54:50.410Z,-4.60
2023-02-24T06:57:18.846Z,-4.60
2023-02-24T06:59:49.653Z,-4.60
2023-02-24T07:02:18.513Z,-4.60
2023-02-24T07:04:48.306Z,-4.60
2023-02-24T07:07:18.120Z,-4.60
2023-02-24T07:09:46.597Z,-4.60
2023-02-24T07:12:21.673Z,-4.40
2023-02-24T07:14:51.416Z,-4.40
2023-02-24T07:17:20.072Z,-4.40
2023-02-24T07:19:48.493Z,-4.40
2023-02-24T07:22:18.350Z,-4.60
2023-02-24T07:24:47.001Z,-4.60
2023-02-24T07:27:23.223Z,-4.60
2023-02-24T07:29:53.732Z,-4.60
2023-02-24T07:32:26.572Z,-4.80
2023-02-24T07:34:55.036Z,-4.80
2023-02-24T07:37:25.101Z,-4.70
2023-02-24T07:39:53.533Z,-4.90
2023-02-24T07:42:22.102Z,-4.80
2023-02-24T07:44:52.069Z,-4.80
2023-02-24T07:47:22.240Z,-4.70
2023-02-24T07:49:51.978Z,-4.60
2023-02-24T07:52:20.436Z,-4.60
2023-02-24T07:54:50.576Z,-4.60
2023-02-24T07:57:19.689Z,-4.60
2023-02-24T07:59:48.531Z,-4.60
2023-02-24T08:02:17.600Z,-4.80
2023-02-24T08:04:51.387Z,-4.70
2023-02-24T08:07:25.594Z,-4.80
2023-02-24T08:10:14.753Z,-4.80
2023-02-24T08:12:43.723Z,-4.40
2023-02-24T08:15:23.311Z,-4.50
2023-02-24T08:18:00.351Z,-4.80
2023-02-24T08:20:36.882Z,-4.70
2023-02-24T08:23:09.386Z,-4.80
2023-02-24T08:25:37.836Z,-4.70
2023-02-24T08:28:12.253Z,-4.70
2023-02-24T08:30:46.418Z,-4.80
2023-02-24T08:33:23.281Z,-4.60
2023-02-24T08:36:02.099Z,-4.60
2023-02-24T08:38:42.834Z,-4.60
2023-02-24T08:41:21.913Z,-4.60
2023-02-24T08:43:51.164Z,-4.50
2023-02-24T08:46:33.558Z,-4.30
2023-02-24T08:49:02.380Z,-4.60
2023-02-24T08:51:35.548Z,-4.40
2023-02-24T08:54:11.797Z,-4.40
2023-02-24T08:57:01.069Z,-4.70
2023-02-24T08:59:38.777Z,-4.20
2023-02-24T09:02:20.003Z,-4.60
2023-02-24T09:04:50.412Z,-4.60
2023-02-24T09:07:30.528Z,-4.60
2023-02-24T09:10:00.644Z,-4.40
2023-02-24T09:12:30.726Z,-4.70
2023-02-24T09:15:08.346Z,-4.70
2023-02-24T09:18:02.663Z,-4.60
2023-02-24T09:20:49.312Z,-4.60
2023-02-24T09:23:30.624Z,-4.60
2023-02-24T09:25:59.121Z,-4.60
2023-02-24T09:28:30.060Z,-4.60
2023-02-24T09:31:05.507Z,-4.60
2023-02-24T09:33:42.548Z,-4.60
2023-02-24T09:36:14.594Z,-4.60
2023-02-24T09:39:01.161Z,-4.60
2023-02-24T09:41:57.963Z,-4.60
2023-02-24T09:44:35.384Z,-4.60
2023-02-24T09:47:14.279Z,-4.60
2023-02-24T09:49:57.371Z,-4.60
2023-02-24T09:52:50.130Z,-4.60
2023-02-24T09:55:28.286Z,-4.60
2023-02-24T09:58:17.971Z,-4.60
2023-02-24T10:01:31.805Z,-4.60
2023-02-24T10:04:18.575Z,-4.60
2023-02-24T10:06:59.078Z,-4.40
2023-02-24T10:09:36.353Z,-4.60
2023-02-24T10:12:12.496Z,-4.60
2023-02-24T10:15:17.208Z,-4.60
2023-02-24T10:17:58.704Z,-4.40
2023-02-24T10:20:46.456Z,-4.60
2023-02-24T10:23:34.676Z,-4.60
2023-02-24T10:26:22.804Z,-4.40
2023-02-24T10:29:02.357Z,-4.40
2023-02-24T10:31:58.608Z,-4.60
2023-02-24T10:34:35.254Z,-4.60
2023-02-24T10:37:28.181Z,-4.60
2023-02-24T10:40:10.424Z,-4.60
2023-02-24T10:42:49.152Z,-4.50
2023-02-24T10:45:24.526Z,-4.20
2023-02-24T10:47:57.999Z,-4.50
2023-02-24T10:50:26.402Z,-4.70
2023-02-24T10:53:05.382Z,-4.70
2023-02-24T10:55:44.682Z,-4.50
2023-02-24T10:58:28.993Z,-4.70
2023-02-24T11:01:07.802Z,-4.70
2023-02-24T11:03:58.986Z,-4.40
2023-02-24T11:06:41.530Z,-4.60
2023-02-24T11:09:30.717Z,-4.80
2023-02-24T11:12:30.939Z,-4.80
2023-02-24T11:15:24.150Z,-4.80
2023-02-24T11:18:00.991Z,-4.60
2023-02-24T11:20:49.418Z,-4.80
2023-02-24T11:23:26.790Z,-4.80
2023-02-24T11:26:20.208Z,-4.60
2023-02-24T11:28:59.145Z,-4.60
2023-02-24T11:32:17.826Z,-4.80
2023-02-24T11:34:56.640Z,-4.80
2023-02-24T11:37:58.212Z,-4.80
2023-02-24T11:40:30.360Z,-4.70
2023-02-24T11:43:19.358Z,-4.80
2023-02-24T11:45:54.444Z,-4.70
2023-02-24T11:48:43.081Z,-4.80
2023-02-24T11:51:35.841Z,-4.80
2023-02-24T11:54:12.785Z,-4.80
2023-02-24T11:56:57.003Z,-4.70
2023-02-24T11:59:37.573Z,-4.80
2023-02-24T12:02:34.661Z,-4.80
2023-02-24T12:05:23.505Z,-4.70
2023-02-24T12:07:53.619Z,-4.90
2023-02-24T12:10:30.265Z,-4.80
2023-02-24T12:13:17.483Z,-4.70
2023-02-24T12:15:53.460Z,-4.80
2023-02-24T12:18:26.574Z,-4.50
2023-02-24T12:20:58.406Z,-4.80
2023-02-24T12:23:36.269Z,-4.50
2023-02-24T12:26:43.448Z,-4.80
2023-02-24T12:29:24.418Z,-4.80
2023-02-24T12:32:36.120Z,-4.70
2023-02-24T12:35:22.445Z,-4.80
2023-02-24T12:38:29.408Z,-4.80
2023-02-24T12:41:10.456Z,-4.70
2023-02-24T12:43:51.091Z,-4.90
2023-02-24T12:46:28.052Z,-4.80
2023-02-24T12:49:21.100Z,-4.90
2023-02-24T12:52:26.330Z,-4.80
2023-02-24T12:55:22.723Z,-4.70
2023-02-24T12:58:21.363Z,-4.90
2023-02-24T13:00:53.234Z,-5.00
2023-02-24T13:03:40.717Z,-4.80
2023-02-24T13:06:09.609Z,-4.80
2023-02-24T13:09:04.503Z,-5.00
2023-02-24T13:11:41.066Z,-5.00
2023-02-24T13:14:38.732Z,-4.60
2023-02-24T13:17:13.459Z,-4.80
2023-02-24T13:19:44.131Z,-4.70
2023-02-24T13:22:17.622Z,-4.80
2023-02-24T13:25:02.229Z,-5.00
2023-02-24T13:27:39.709Z,-5.00
2023-02-24T13:30:25.593Z,-4.90
2023-02-24T13:33:19.894Z,-5.00
2023-02-24T13:35:54.775Z,-4.90
2023-02-24T13:38:38.680Z,-5.00
2023-02-24T13:41:30.533Z,-4.70
2023-02-24T13:44:04.900Z,-4.80
2023-02-24T13:46:50.168Z,-4.80
2023-02-24T13:49:59.579Z,-5.00
2023-02-24T13:52:46.384Z,-5.00
2023-02-24T13:55:23.502Z,-5.00
2023-02-24T13:58:19.344Z,-4.90
2023-02-24T14:00:59.691Z,-5.00
2023-02-24T14:03:30.060Z,-4.90
2023-02-24T14:06:00.045Z,-5.00
2023-02-24T14:08:34.364Z,-4.80
2023-02-24T14:11:07.338Z,-4.90
2023-02-24T14:13:37.672Z,-5.00
2023-02-24T14:16:13.749Z,-5.00
2023-02-24T14:18:42.637Z,-4.90
2023-02-24T14:21:23.976Z,-5.00
2023-02-24T14:24:01.716Z,-4.80
2023-02-24T14:26:36.207Z,-4.80
2023-02-24T14:29:05.533Z,-5.10
2023-02-24T14:31:34.112Z,-4.80
2023-02-24T14:34:05.810Z,-4.90
2023-02-24T14:36:42.883Z,-5.00
2023-02-24T14:39:19.541Z,-4.80
2023-02-24T14:41:49.481Z,-4.70
2023-02-24T14:44:22.514Z,-4.80
2023-02-24T14:46:53.379Z,-4.60
2023-02-24T14:49:28.587Z,-4.90
2023-02-24T14:52:31.163Z,-5.00
2023-02-24T14:55:24.247Z,-4.90
2023-02-24T14:58:17.201Z,-5.00
2023-02-24T15:00:51.785Z,-4.80
2023-02-24T15:03:31.902Z,-4.80
2023-02-24T15:06:06.243Z,-4.80
2023-02-24T15:09:01.261Z,-4.50
2023-02-24T15:11:32.037Z,-4.80
2023-02-24T15:14:09.486Z,-4.80
2023-02-24T15:16:44.962Z,-4.80
2023-02-24T15:19:55.421Z,-4.70
2023-02-24T15:22:34.411Z,-4.90
2023-02-24T15:25:20.319Z,-4.70
2023-02-24T15:27:55.850Z,-4.30
2023-02-24T15:30:54.578Z,-4.60
2023-02-24T15:33:25.592Z,-4.60
2023-02-24T15:35:56.517Z,-4.60
2023-02-24T15:38:26.745Z,-4.60
2023-02-24T15:40:58.684Z,-4.60
2023-02-24T15:43:51.048Z,-4.40
2023-02-24T15:46:31.771Z,-4.10
2023-02-24T15:49:03.973Z,-4.40
2023-02-24T15:51:45.770Z,-4.40
2023-02-24T15:54:18.046Z,-4.40
2023-02-24T15:56:48.300Z,-4.30
2023-02-24T15:59:18.711Z,-4.20
2023-02-24T16:01:47.187Z,-4.20
2023-02-24T16:04:16.008Z,-4.20
2023-02-24T16:06:55.389Z,-4.20
2023-02-24T16:09:41.386Z,-4.10
2023-02-24T16:12:17.315Z,-3.50
2023-02-24T16:14:46.351Z,-3.60
2023-02-24T16:17:31.592Z,-3.50
2023-02-24T16:20:01.558Z,-3.80
2023-02-24T16:22:30.806Z,-3.90
2023-02-24T16:24:59.177Z,-3.80
2023-02-24T16:27:30.330Z,-4.00
2023-02-24T16:30:00.982Z,-4.00
2023-02-24T16:32:29.655Z,-4.10
2023-02-24T16:34:58.264Z,-3.60
2023-02-24T16:37:31.086Z,-3.50
2023-02-24T16:40:00.335Z,-3.70
2023-02-24T16:42:28.778Z,-2.90
2023-02-24T16:44:57.221Z,-2.50
2023-02-24T16:47:26.610Z,-2.10
2023-02-24T16:49:58.731Z,-1.80
2023-02-24T16:52:27.504Z,-1.00
2023-02-24T16:54:56.101Z,-1.00
2023-02-24T16:57:26.412Z,-0.90
2023-02-24T16:59:54.906Z,-0.80
2023-02-24T17:02:26.981Z,-0.60
2023-02-24T17:04:55.861Z,-0.80
2023-02-24T17:07:24.961Z,-0.90
2023-02-24T17:09:53.444Z,-1.00
2023-02-24T17:12:22.774Z,-0.80
2023-02-24T17:14:51.419Z,-0.70
2023-02-24T17:17:20.550Z,-0.80
2023-02-24T17:19:49.059Z,-0.60
2023-02-24T17:22:18.510Z,-0.50
2023-02-24T17:24:46.978Z,-0.80
2023-02-24T17:27:15.388Z,-0.60
2023-02-24T17:29:43.810Z,-0.90
2023-02-24T17:32:12.393Z,-0.80
2023-02-24T17:34:40.888Z,-0.90
2023-02-24T17:37:09.284Z,-0.10
2023-02-24T17:39:37.781Z,-0.50
2023-02-24T17:42:06.520Z,-0.60
2023-02-24T17:44:35.036Z,-0.60
2023-02-24T17:47:03.497Z,-0.50
2023-02-24T17:49:31.881Z,-0.10
2023-02-24T17:52:00.267Z,-0.30
2023-02-24T17:54:28.767Z,-0.70
2023-02-24T17:56:57.591Z,-0.10
2023-02-24T17:59:26.006Z,0.40
2023-02-24T18:01:54.803Z,0.90
2023-02-24T18:04:23.217Z,0.30
2023-02-24T18:06:51.582Z,0.20
2023-02-24T18:09:20.444Z,0.10
2023-02-24T18:11:48.873Z,0.70
2023-02-24T18:14:17.743Z,1.00
2023-02-24T18:16:46.223Z,1.00
2023-02-24T18:19:14.998Z,0.80
2023-02-24T18:21:43.386Z,1.00
2023-02-24T18:24:12.193Z,1.20
2023-02-24T18:26:40.790Z,1.40
2023-02-24T18:29:09.218Z,1.60
2023-02-24T18:31:37.939Z,2.00
2023-02-24T18:34:06.597Z,1.80
2023-02-24T18:36:35.440Z,1.90
2023-02-24T18:39:04.267Z,1.60
2023-02-24T18:41:32.897Z,1.50
2023-02-24T18:44:01.324Z,1.30
2023-02-24T18:46:29.796Z,1.60
2023-02-24T18:48:58.521Z,1.50
2023-02-24T18:51:27.956Z,0.70
2023-02-24T18:53:58.545Z,0.90
2023-02-24T18:56:28.667Z,1.70
2023-02-24T18:58:59.140Z,1.70
2023-02-24T19:01:31.174Z,2.30
2023-02-24T19:04:00.507Z,2.50
2023-02-24T19:06:30.951Z,3.00
2023-02-24T19:09:12.205Z,2.80
2023-02-24T19:11:42.358Z,2.30
2023-02-24T19:14:12.253Z,2.30
2023-02-24T19:16:41.763Z,2.80
2023-02-24T19:19:15.542Z,2.20
2023-02-24T19:21:48.228Z,1.30
2023-02-24T19:24:17.631Z,1.40
2023-02-24T19:26:48.243Z,1.10
2023-02-24T19:29:18.035Z,1.40
2023-02-24T19:31:46.633Z,1.50
2023-02-24T19:34:16.193Z,1.50
2023-02-24T19:36:44.985Z,1.40
2023-02-24T19:39:15.803Z,1.50
2023-02-24T19:41:44.691Z,1.70
2023-02-24T19:44:13.313Z,1.70
2023-02-24T19:46:41.842Z,1.40
2023-02-24T19:49:10.979Z,1.60
2023-02-24T19:51:39.527Z,1.90
2023-02-24T19:54:08.419Z,2.20
2023-02-24T19:56:37.950Z,2.20
2023-02-24T19:59:08.626Z,2.00
2023-02-24T20:01:37.208Z,2.40
2023-02-24T20:04:07.214Z,3.00
2023-02-24T20:06:38.529Z,3.50
2023-02-24T20:09:08.865Z,3.20
2023-02-24T20:11:38.515Z,3.60
2023-02-24T20:14:08.542Z,3.30
2023-02-24T20:16:39.607Z,3.60
2023-02-24T20:19:10.171Z,3.00
2023-02-24T20:21:42.189Z,2.90
2023-02-24T20:24:14.226Z,2.10
2023-02-24T20:26:47.069Z,1.70
2023-02-24T20:29:16.726Z,1.80
2023-02-24T20:31:45.357Z,1.80
2023-02-24T20:34:15.244Z,1.90
2023-02-24T20:36:44.688Z,1.70
2023-02-24T20:39:13.283Z,1.40
2023-02-24T20:41:42.212Z,0.90
2023-02-24T20:44:12.236Z,0.90
2023-02-24T20:46:41.245Z,0.90
2023-02-24T20:49:12.641Z,1.10
2023-02-24T20:51:41.346Z,1.20
2023-02-24T20:54:11.891Z,1.20
2023-02-24T20:56:42.452Z,0.90
2023-02-24T20:59:15.102Z,1.20
2023-02-24T21:01:46.974Z,1.00
2023-02-24T21:04:17.130Z,1.00
2023-02-24T21:06:47.414Z,1.00
2023-02-24T21:09:16.968Z,0.60
2023-02-24T21:11:45.434Z,1.20
2023-02-24T21:14:18.263Z,1.00
2023-02-24T21:16:46.992Z,0.70
2023-02-24T21:19:15.927Z,0.70
2023-02-24T21:21:44.643Z,0.70
2023-02-24T21:24:13.100Z,0.70
2023-02-24T21:26:41.620Z,1.00
2023-02-24T21:29:10.120Z,1.20
2023-02-24T21:31:38.723Z,1.20
2023-02-24T21:34:07.235Z,0.90
2023-02-24T21:36:35.696Z,1.20
2023-02-24T21:39:05.939Z,1.50
2023-02-24T21:41:36.513Z,1.40
2023-02-24T21:44:05.908Z,1.50
2023-02-24T21:46:34.629Z,1.70
2023-02-24T21:49:03.495Z,1.60
2023-02-24T21:51:31.905Z,1.20
2023-02-24T21:54:01.559Z,1.70
2023-02-24T21:56:31.134Z,1.30
2023-02-24T21:59:00.921Z,1.20
2023-02-24T22:01:35.460Z,1.00
2023-02-24T22:04:07.877Z,1.20
2023-02-24T22:06:38.014Z,0.90
2023-02-24T22:09:09.023Z,0.90
2023-02-24T22:11:41.543Z,0.80
2023-02-24T22:14:11.966Z,0.70
2023-02-24T22:16:41.035Z,0.70
2023-02-24T22:19:10.157Z,0.90
2023-02-24T22:21:40.350Z,0.60
2023-02-24T22:24:09.838Z,1.00
2023-02-24T22:26:38.226Z,1.20
2023-02-24T22:29:07.230Z,0.90
2023-02-24T22:31:38.998Z,1.20
2023-02-24T22:34:09.689Z,0.80
2023-02-24T22:36:39.411Z,1.20
2023-02-24T22:39:09.695Z,1.00
2023-02-24T22:41:38.542Z,1.10
2023-02-24T22:44:07.424Z,1.40
2023-02-24T22:46:42.426Z,1.20
2023-02-24T22:49:11.285Z,1.50
2023-02-24T22:51:45.730Z,1.10
2023-02-24T22:54:14.183Z,1.10
2023-02-24T22:56:42.573Z,1.10
2023-02-24T22:59:11.975Z,1.20
2023-02-24T23:01:40.983Z,1.20
2023-02-24T23:04:15.536Z,1.40
2023-02-24T23:06:45.336Z,1.10
2023-02-24T23:09:18.518Z,1.50
2023-02-24T23:11:48.427Z,0.90
2023-02-24T23:14:17.568Z,1.10
2023-02-24T23:16:49.564Z,1.40
2023-02-24T23:19:19.091Z,1.10
2023-02-24T23:21:52.623Z,1.30
2023-02-24T23:24:23.246Z,0.90
2023-02-24T23:26:54.932Z,1.00
2023-02-24T23:29:25.138Z,1.20
2023-02-24T23:31:54.203Z,1.20
2023-02-24T23:34:23.074Z,1.00
2023-02-24T23:36:51.512Z,1.20
2023-02-24T23:39:24.394Z,1.00
2023-02-24T23:41:57.158Z,1.10
2023-02-24T23:44:26.182Z,0.80
2023-02-24T23:46:54.943Z,0.80
2023-02-24T23:49:23.348Z,1.20
2023-02-24T23:51:51.752Z,1.00
2023-02-24T23:54:21.191Z,1.20
2023-02-24T23:56:50.054Z,1.00
2023-02-24T23:59:18.579Z,1.20
